createdAt,value
2023-05-11T00:02:18.663Z,99.90
2023-05-11T00:04:46.621Z,99.90
2023-05-11T00:07:14.512Z,99.90
2023-05-11T00:09:42.398Z,99.90
2023-05-11T00:12:10.383Z,99.90
2023-05-11T00:14:38.220Z,99.90
2023-05-11T00:17:06.130Z,99.90
2023-05-11T00:19:35.356Z,99.90
2023-05-11T00:22:03.547Z,99.90
2023-05-11T00:24:31.387Z,99.90
2023-05-11T00:26:59.227Z,99.90
2023-05-11T00:29:27.139Z,99.90
2023-05-11T00:31:55.039Z,99.90
2023-05-11T00:34:23.151Z,99.90
2023-05-11T00:36:52.373Z,99.90
2023-05-11T00:39:20.496Z,99.90
2023-05-11T00:41:48.371Z,99.90
2023-05-11T00:44:16.234Z,99.90
2023-05-11T00:46:44.411Z,99.90
2023-05-11T00:49:12.482Z,99.90
2023-05-11T00:51:41.060Z,99.90
2023-05-11T00:54:15.168Z,99.90
2023-05-11T00:56:43.423Z,99.90
2023-05-11T00:59:11.381Z,99.90
2023-05-11T01:01:39.835Z,99.90
2023-05-11T01:04:08.612Z,99.90
2023-05-11T01:06:45.316Z,99.90
2023-05-11T01:09:25.386Z,99.90
2023-05-11T01:12:01.314Z,99.90
2023-05-11T01:14:36.166Z,99.90
2023-05-11T01:17:11.254Z,99.90
2023-05-11T01:19:44.334Z,99.90
2023-05-11T01:22:32.076Z,99.90
2023-05-11T01:25:14.016Z,99.90
2023-05-11T01:27:58.166Z,99.90
2023-05-11T01:30:37.044Z,99.90
2023-05-11T01:33:10.865Z,99.90
2023-05-11T01:35:43.802Z,99.90
2023-05-11T01:38:14.022Z,99.90
2023-05-11T01:40:43.921Z,99.90
2023-05-11T01:43:18.768Z,99.90
2023-05-11T01:45:51.391Z,99.90
2023-05-11T01:48:23.718Z,99.90
2023-05-11T01:50:52.391Z,99.90
2023-05-11T01:53:21.086Z,99.90
2023-05-11T01:55:50.539Z,99.90
2023-05-11T01:58:19.494Z,99.90
2023-05-11T02:00:49.636Z,99.90
2023-05-11T02:03:18.478Z,99.90
2023-05-11T02:05:48.397Z,99.90
2023-05-11T02:08:17.820Z,99.90
2023-05-11T02:10:47.572Z,99.90
2023-05-11T02:13:18.657Z,99.90
2023-05-11T02:15:49.607Z,99.90
2023-05-11T02:18:18.730Z,99.90
2023-05-11T02:20:47.755Z,99.90
2023-05-11T02:23:17.180Z,99.90
2023-05-11T02:25:45.864Z,99.90
2023-05-11T02:28:13.687Z,99.90
2023-05-11T02:30:46.598Z,99.90
2023-05-11T02:33:23.016Z,99.90
2023-05-11T02:35:52.441Z,99.90
2023-05-11T02:38:21.041Z,99.90
2023-05-11T02:40:52.371Z,99.90
2023-05-11T02:43:25.338Z,99.90
2023-05-11T02:45:58.676Z,99.90
2023-05-11T02:48:29.821Z,99.90
2023-05-11T02:50:59.359Z,99.90
2023-05-11T02:53:31.087Z,99.90
2023-05-11T02:56:00.503Z,99.90
2023-05-11T02:58:29.248Z,99.90
2023-05-11T03:00:57.727Z,99.90
2023-05-11T03:03:28.081Z,99.90
2023-05-11T03:05:56.042Z,99.90
2023-05-11T03:08:23.921Z,99.90
2023-05-11T03:10:52.870Z,99.90
2023-05-11T03:13:23.444Z,99.90
2023-05-11T03:15:52.968Z,99.90
2023-05-11T03:18:22.014Z,99.90
2023-05-11T03:20:51.839Z,99.90
2023-05-11T03:23:20.439Z,99.90
2023-05-11T03:25:48.655Z,99.90
2023-05-11T03:28:18.298Z,99.90
2023-05-11T03:30:46.855Z,99.90
2023-05-11T03:33:14.738Z,99.90
2023-05-11T03:35:44.231Z,99.90
2023-05-11T03:38:15.257Z,99.90
2023-05-11T03:40:44.194Z,99.90
2023-05-11T03:43:15.921Z,99.90
2023-05-11T03:45:45.126Z,99.90
2023-05-11T03:48:15.598Z,99.90
2023-05-11T03:50:44.589Z,99.90
2023-05-11T03:53:14.305Z,99.90
2023-05-11T03:55:42.234Z,99.90
2023-05-11T03:58:10.726Z,99.90
2023-05-11T04:00:42.567Z,99.90
2023-05-11T04:03:11.514Z,99.90
2023-05-11T04:05:39.459Z,99.90
2023-05-11T04:08:07.526Z,99.90
2023-05-11T04:10:38.227Z,99.90
2023-05-11T04:13:06.283Z,99.90
2023-05-11T04:15:35.329Z,99.90
2023-05-11T04:18:03.242Z,99.90
2023-05-11T04:20:31.106Z,99.90
2023-05-11T04:22:58.965Z,99.90
2023-05-11T04:25:27.445Z,99.90
2023-05-11T04:27:56.666Z,99.90
2023-05-11T04:30:24.952Z,99.90
2023-05-11T04:32:52.887Z,99.90
2023-05-11T04:35:21.873Z,99.90
2023-05-11T04:37:49.721Z,99.90
2023-05-11T04:40:18.077Z,99.90
2023-05-11T04:42:46.120Z,99.90
2023-05-11T04:45:15.476Z,99.90
2023-05-11T04:47:43.377Z,99.90
2023-05-11T04:50:11.704Z,99.90
2023-05-11T04:52:39.503Z,99.90
2023-05-11T04:55:08.259Z,99.90
2023-05-11T04:57:36.183Z,99.90
2023-05-11T05:00:04.242Z,99.90
2023-05-11T05:02:33.527Z,99.90
2023-05-11T05:05:01.568Z,99.90
2023-05-11T05:07:29.439Z,99.90
2023-05-11T05:09:57.267Z,99.90
2023-05-11T05:12:25.216Z,99.90
2023-05-11T05:14:53.041Z,99.90
2023-05-11T05:17:21.195Z,99.90
2023-05-11T05:19:50.446Z,99.90
2023-05-11T05:22:18.304Z,99.90
2023-05-11T05:24:46.130Z,99.90
2023-05-11T05:27:13.962Z,99.90
2023-05-11T05:29:41.771Z,99.90
2023-05-11T05:32:09.708Z,99.90
2023-05-11T05:34:37.567Z,99.90
2023-05-11T05:37:06.791Z,99.90
2023-05-11T05:39:34.630Z,99.90
2023-05-11T05:42:03.235Z,99.90
2023-05-11T05:44:31.474Z,99.90
2023-05-11T05:46:59.382Z,99.90
2023-05-11T05:49:27.230Z,99.90
2023-05-11T05:51:55.727Z,99.90
2023-05-11T05:54:24.940Z,99.90
2023-05-11T05:56:52.758Z,99.90
2023-05-11T05:59:23.264Z,99.90
2023-05-11T06:01:51.898Z,99.90
2023-05-11T06:04:19.835Z,99.90
2023-05-11T06:06:47.977Z,99.90
2023-05-11T06:09:15.837Z,99.90
2023-05-11T06:11:45.123Z,99.90
2023-05-11T06:14:13.003Z,99.90
2023-05-11T06:16:40.972Z,99.90
2023-05-11T06:19:09.351Z,99.90
2023-05-11T06:21:37.287Z,99.90
2023-05-11T06:24:05.716Z,99.90
2023-05-11T06:26:33.631Z,99.90
2023-05-11T06:29:02.926Z,99.90
2023-05-11T06:31:30.852Z,99.90
2023-05-11T06:33:58.744Z,99.90
2023-05-11T06:36:26.848Z,99.90
2023-05-11T06:38:54.675Z,99.90
2023-05-11T06:41:22.628Z,99.90
2023-05-11T06:43:50.569Z,99.90
2023-05-11T06:46:19.835Z,99.90
2023-05-11T06:48:47.756Z,99.90
2023-05-11T06:51:15.585Z,99.90
2023-05-11T06:53:43.532Z,99.90
2023-05-11T06:56:11.488Z,99.90
2023-05-11T06:58:39.521Z,99.90
2023-05-11T07:01:07.989Z,99.90
2023-05-11T07:03:37.674Z,99.90
2023-05-11T07:06:05.790Z,99.90
2023-05-11T07:08:33.982Z,99.90
2023-05-11T07:11:01.892Z,99.90
2023-05-11T07:13:29.860Z,99.90
2023-05-11T07:15:57.933Z,99.90
2023-05-11T07:18:25.906Z,99.90
2023-05-11T07:20:55.171Z,99.90
2023-05-11T07:23:23.023Z,99.90
2023-05-11T07:25:51.025Z,99.90
2023-05-11T07:28:19.305Z,99.90
2023-05-11T07:30:48.440Z,99.90
2023-05-11T07:33:16.687Z,99.90
2023-05-11T07:35:44.518Z,99.90
2023-05-11T07:38:13.783Z,99.90
2023-05-11T07:40:41.754Z,99.90
2023-05-11T07:43:09.721Z,99.90
2023-05-11T07:45:37.563Z,99.90
2023-05-11T07:48:05.560Z,99.90
2023-05-11T07:50:33.482Z,99.90
2023-05-11T07:53:01.324Z,99.90
2023-05-11T07:55:30.775Z,99.90
2023-05-11T07:57:58.849Z,99.90
2023-05-11T08:00:26.940Z,99.90
2023-05-11T08:02:55.029Z,99.90
2023-05-11T08:05:23.065Z,99.90
2023-05-11T08:07:50.944Z,99.90
2023-05-11T08:10:18.947Z,99.90
2023-05-11T08:12:48.148Z,99.90
2023-05-11T08:15:16.048Z,99.90
2023-05-11T08:17:46.017Z,99.90
2023-05-11T08:20:14.525Z,99.90
2023-05-11T08:22:42.434Z,99.90
2023-05-11T08:25:10.736Z,99.90
2023-05-11T08:27:38.698Z,99.90
2023-05-11T08:30:11.732Z,99.90
2023-05-11T08:35:11.410Z,88.60
2023-05-11T08:37:39.300Z,99.90
2023-05-11T08:40:08.244Z,99.90
2023-05-11T08:42:38.512Z,99.90
2023-05-11T08:45:09.235Z,87.20
2023-05-11T08:47:37.272Z,18.60
2023-05-11T08:50:05.600Z,52.80
2023-05-11T08:52:34.409Z,18.50
2023-05-11T08:55:02.287Z,1.00
2023-05-11T08:57:32.785Z,1.00
2023-05-11T09:00:03.450Z,1.00
2023-05-11T09:02:33.482Z,1.00
2023-05-11T09:05:04.049Z,1.00
2023-05-11T09:07:32.500Z,10.70
2023-05-11T09:10:01.375Z,60.80
2023-05-11T09:12:29.712Z,94.20
2023-05-11T09:15:02.058Z,91.50
2023-05-11T09:17:30.144Z,99.90
2023-05-11T09:20:01.230Z,99.90
2023-05-11T09:22:31.360Z,99.90
2023-05-11T09:25:01.633Z,99.90
2023-05-11T09:27:29.507Z,99.90
2023-05-11T09:29:57.413Z,99.90
2023-05-11T09:32:25.492Z,99.90
2023-05-11T09:34:53.450Z,99.90
2023-05-11T09:37:22.847Z,99.90
2023-05-11T09:40:14.253Z,99.90
2023-05-11T09:42:44.069Z,99.90
2023-05-11T09:45:12.308Z,89.10
2023-05-11T09:47:40.831Z,63.40
2023-05-11T09:50:18.718Z,95.40
2023-05-11T09:52:54.980Z,55.60
2023-05-11T09:55:22.826Z,99.90
2023-05-11T09:57:55.588Z,89.70
2023-05-11T10:00:25.126Z,99.90
2023-05-11T10:03:05.033Z,99.90
2023-05-11T10:05:34.591Z,49.10
2023-05-11T10:08:05.336Z,23.80
2023-05-11T10:10:35.418Z,26.00
2023-05-11T10:13:03.954Z,19.00
2023-05-11T10:15:35.204Z,1.00
2023-05-11T10:18:03.313Z,1.00
2023-05-11T10:20:31.252Z,59.60
2023-05-11T10:22:59.254Z,4.70
2023-05-11T10:25:28.931Z,48.70
2023-05-11T10:27:58.119Z,33.70
2023-05-11T10:30:26.380Z,38.30
2023-05-11T10:32:56.480Z,87.40
2023-05-11T10:35:24.726Z,6.00
2023-05-11T10:37:52.803Z,1.00
2023-05-11T10:40:21.041Z,36.30
2023-05-11T10:43:09.554Z,59.30
2023-05-11T10:45:48.475Z,37.30
2023-05-11T10:48:55.956Z,1.00
2023-05-11T10:51:47.518Z,93.50
2023-05-11T10:54:30.516Z,78.80
2023-05-11T10:57:10.008Z,78.10
2023-05-11T11:00:04.987Z,78.30
2023-05-11T11:02:33.046Z,98.30
2023-05-11T11:05:05.578Z,1.00
2023-05-11T11:07:33.652Z,29.80
2023-05-11T11:10:05.157Z,73.40
2023-05-11T11:12:34.990Z,94.10
2023-05-11T11:15:06.225Z,99.90
2023-05-11T11:17:35.076Z,99.90
2023-05-11T11:20:04.544Z,1.00
2023-05-11T11:22:47.067Z,1.00
2023-05-11T11:25:17.025Z,1.00
2023-05-11T11:27:58.294Z,1.00
2023-05-11T11:30:30.398Z,63.20
2023-05-11T11:33:31.691Z,1.00
2023-05-11T11:35:59.670Z,61.10
2023-05-11T11:38:29.435Z,1.00
2023-05-11T11:40:57.676Z,4.10
2023-05-11T11:43:26.594Z,52.80
2023-05-11T11:45:57.032Z,23.30
2023-05-11T11:48:31.200Z,1.00
2023-05-11T11:51:04.369Z,1.00
2023-05-11T11:54:02.351Z,1.00
2023-05-11T11:56:41.261Z,5.30
2023-05-11T11:59:13.694Z,1.00
2023-05-11T12:01:44.370Z,7.40
2023-05-11T12:04:37.585Z,1.00
2023-05-11T12:07:10.074Z,1.00
2023-05-11T12:09:40.847Z,48.30
2023-05-11T12:12:10.677Z,1.00
2023-05-11T12:14:40.673Z,24.00
2023-05-11T12:17:15.278Z,6.50
2023-05-11T12:19:45.444Z,1.00
2023-05-11T12:22:14.658Z,1.00
2023-05-11T12:24:43.887Z,1.00
2023-05-11T12:27:11.960Z,46.80
2023-05-11T12:29:41.308Z,1.00
2023-05-11T12:32:14.758Z,1.00
2023-05-11T12:34:42.788Z,1.00
2023-05-11T12:37:10.739Z,1.00
2023-05-11T12:39:39.536Z,32.20
2023-05-11T12:42:07.641Z,72.00
2023-05-11T12:44:35.588Z,30.10
2023-05-11T12:47:03.649Z,19.30
2023-05-11T12:49:33.485Z,33.80
2023-05-11T12:52:08.831Z,99.90
2023-05-11T12:54:38.706Z,63.80
2023-05-11T12:57:08.052Z,1.00
2023-05-11T12:59:38.444Z,66.30
2023-05-11T13:02:11.890Z,14.50
2023-05-11T13:04:42.705Z,1.00
2023-05-11T13:07:11.664Z,15.10
2023-05-11T13:09:40.622Z,8.40
2023-05-11T13:12:10.174Z,1.00
2023-05-11T13:14:38.111Z,12.80
2023-05-11T13:17:06.574Z,14.00
2023-05-11T13:19:34.813Z,1.00
2023-05-11T13:22:05.006Z,1.00
2023-05-11T13:24:34.440Z,1.00
2023-05-11T13:27:02.686Z,23.40
2023-05-11T13:29:30.591Z,1.00
2023-05-11T13:31:58.491Z,1.00
2023-05-11T13:34:26.691Z,1.00
2023-05-11T13:36:54.555Z,1.00
2023-05-11T13:39:23.789Z,1.00
2023-05-11T13:41:54.358Z,1.00
2023-05-11T13:44:23.593Z,1.00
2023-05-11T13:46:51.492Z,1.00
2023-05-11T13:49:19.334Z,1.00
2023-05-11T13:51:47.201Z,1.00
2023-05-11T13:54:15.041Z,1.00
2023-05-11T13:56:44.328Z,1.00
2023-05-11T13:59:12.255Z,19.50
2023-05-11T14:01:40.206Z,44.70
2023-05-11T14:04:08.152Z,1.00
2023-05-11T14:06:36.967Z,14.80
2023-05-11T14:09:05.070Z,1.00
2023-05-11T14:11:32.943Z,1.00
2023-05-11T14:14:02.197Z,10.30
2023-05-11T14:16:30.170Z,1.00
2023-05-11T14:18:58.132Z,1.00
2023-05-11T14:21:26.075Z,1.00
2023-05-11T14:24:09.922Z,16.00
2023-05-11T14:26:39.057Z,19.60
2023-05-11T14:29:08.525Z,83.40
2023-05-11T14:31:37.361Z,83.80
2023-05-11T14:34:05.847Z,88.60
2023-05-11T14:36:33.837Z,99.90
2023-05-11T14:39:01.695Z,62.50
2023-05-11T14:41:29.679Z,98.40
2023-05-11T14:43:57.740Z,99.50
2023-05-11T14:46:27.103Z,99.90
2023-05-11T14:48:55.181Z,99.90
2023-05-11T14:51:23.066Z,99.90
2023-05-11T14:53:50.974Z,99.90
2023-05-11T14:56:19.031Z,99.90
2023-05-11T14:58:47.008Z,99.90
2023-05-11T15:01:14.927Z,99.90
2023-05-11T15:03:44.289Z,99.90
2023-05-11T15:06:12.202Z,99.90
2023-05-11T15:08:40.109Z,99.90
2023-05-11T15:11:08.365Z,99.90
2023-05-11T15:13:36.230Z,99.90
2023-05-11T15:16:04.194Z,99.90
2023-05-11T15:18:32.101Z,99.90
2023-05-11T15:21:02.059Z,99.90
2023-05-11T15:23:29.948Z,99.90
2023-05-11T15:25:58.554Z,99.90
2023-05-11T15:28:26.469Z,99.90
2023-05-11T15:30:54.331Z,99.90
2023-05-11T15:33:22.242Z,99.90
2023-05-11T15:35:51.303Z,99.90
2023-05-11T15:38:20.703Z,99.90
2023-05-11T15:40:48.739Z,99.90
2023-05-11T15:43:16.790Z,99.90
2023-05-11T15:45:44.781Z,99.90
2023-05-11T15:48:13.208Z,99.90
2023-05-11T15:50:41.078Z,99.90
2023-05-11T15:53:08.978Z,99.90
2023-05-11T15:55:39.006Z,99.90
2023-05-11T15:58:07.986Z,99.90
2023-05-11T16:00:35.988Z,99.90
2023-05-11T16:03:03.968Z,99.90
2023-05-11T16:05:32.475Z,99.90
2023-05-11T16:08:00.438Z,99.90
2023-05-11T16:10:28.346Z,99.90
2023-05-11T16:12:58.912Z,99.90
2023-05-11T16:15:27.010Z,99.90
2023-05-11T16:17:54.898Z,99.90
2023-05-11T16:20:22.887Z,99.90
2023-05-11T16:22:50.837Z,99.90
2023-05-11T16:25:18.884Z,99.90
2023-05-11T16:27:46.845Z,99.90
2023-05-11T16:30:24.331Z,99.90
2023-05-11T16:32:53.256Z,99.90
2023-05-11T16:35:21.625Z,99.90
2023-05-11T16:37:49.592Z,99.90
2023-05-11T16:40:19.141Z,99.90
2023-05-11T16:42:48.473Z,99.90
2023-05-11T16:45:18.017Z,99.90
2023-05-11T16:47:46.101Z,99.90
2023-05-11T16:50:15.938Z,99.90
2023-05-11T16:52:44.150Z,99.90
2023-05-11T16:55:12.120Z,99.90
2023-05-11T16:57:40.213Z,99.90
2023-05-11T17:00:09.879Z,99.90
2023-05-11T17:02:39.342Z,99.90
2023-05-11T17:05:08.071Z,99.90
2023-05-11T17:07:35.993Z,99.90
2023-05-11T17:10:03.885Z,99.90
2023-05-11T17:12:31.953Z,99.90
2023-05-11T17:15:00.649Z,99.90
2023-05-11T17:17:28.574Z,99.90
2023-05-11T17:19:57.816Z,99.90
2023-05-11T17:22:25.836Z,99.90
2023-05-11T17:24:53.781Z,99.90
2023-05-11T17:27:22.387Z,99.90
2023-05-11T17:29:50.298Z,99.90
2023-05-11T17:32:18.395Z,99.90
2023-05-11T17:34:46.464Z,99.90
2023-05-11T17:37:30.758Z,99.90
2023-05-11T17:40:01.031Z,99.90
2023-05-11T17:42:29.523Z,99.90
2023-05-11T17:44:57.558Z,99.90
2023-05-11T17:47:26.011Z,99.90
2023-05-11T17:49:54.000Z,99.90
2023-05-11T17:52:25.133Z,99.90
2023-05-11T17:54:53.196Z,99.90
2023-05-11T17:57:23.298Z,99.90
2023-05-11T17:59:51.210Z,99.90
2023-05-11T18:02:19.310Z,99.90
2023-05-11T18:04:47.409Z,99.90
2023-05-11T18:07:15.352Z,99.90
2023-05-11T18:09:44.564Z,99.90
2023-05-11T18:12:12.585Z,99.90
2023-05-11T18:14:40.473Z,99.90
2023-05-11T18:17:08.702Z,99.90
2023-05-11T18:19:36.545Z,99.90
2023-05-11T18:22:04.490Z,99.90
2023-05-11T18:24:32.345Z,99.90
2023-05-11T18:27:02.201Z,99.90
2023-05-11T18:29:30.167Z,99.90
2023-05-11T18:31:58.214Z,99.90
2023-05-11T18:34:26.305Z,99.90
2023-05-11T18:36:54.230Z,99.90
2023-05-11T18:39:22.171Z,99.90
2023-05-11T18:41:50.070Z,99.90
2023-05-11T18:44:19.575Z,99.90
2023-05-11T18:46:47.453Z,99.90
2023-05-11T18:49:15.326Z,99.90
2023-05-11T18:51:43.224Z,99.90
2023-05-11T18:54:11.419Z,99.90
2023-05-11T18:56:39.337Z,99.90
2023-05-11T18:59:07.661Z,99.90
2023-05-11T19:01:47.152Z,99.90
2023-05-11T19:04:19.437Z,99.90
2023-05-11T19:06:47.509Z,99.90
2023-05-11T19:09:15.394Z,99.90
2023-05-11T19:11:43.754Z,99.90
2023-05-11T19:14:14.425Z,99.90
2023-05-11T19:16:43.817Z,99.90
2023-05-11T19:19:12.588Z,99.90
2023-05-11T19:21:42.470Z,99.90
2023-05-11T19:24:11.234Z,99.90
2023-05-11T19:26:39.581Z,99.90
2023-05-11T19:29:09.146Z,99.90
2023-05-11T19:31:37.248Z,99.90
2023-05-11T19:34:06.992Z,99.90
2023-05-11T19:36:35.012Z,99.90
2023-05-11T19:39:04.425Z,99.90
2023-05-11T19:41:33.130Z,99.90
2023-05-11T19:44:02.561Z,99.90
2023-05-11T19:46:31.140Z,99.90
2023-05-11T19:48:59.208Z,99.90
2023-05-11T19:51:28.708Z,99.90
2023-05-11T19:53:57.066Z,99.90
2023-05-11T19:56:24.950Z,99.90
2023-05-11T19:58:53.576Z,99.90
2023-05-11T20:01:21.452Z,99.90
2023-05-11T20:03:49.441Z,99.90
2023-05-11T20:06:17.467Z,99.90
2023-05-11T20:08:48.791Z,99.90
2023-05-11T20:11:16.880Z,99.90
2023-05-11T20:13:46.733Z,99.90
2023-05-11T20:16:14.854Z,99.90
2023-05-11T20:18:43.096Z,99.90
2023-05-11T20:21:10.998Z,99.90
2023-05-11T20:23:39.281Z,99.90
2023-05-11T20:26:08.552Z,99.90
2023-05-11T20:28:36.443Z,99.90
2023-05-11T20:31:04.831Z,99.90
2023-05-11T20:36:03.743Z,99.90
2023-05-11T20:38:31.584Z,99.90
2023-05-11T20:40:59.758Z,99.90
2023-05-11T20:43:29.488Z,99.90
2023-05-11T20:46:02.967Z,99.90
2023-05-11T20:48:40.062Z,99.90
2023-05-11T20:51:09.458Z,99.90
2023-05-11T20:53:37.859Z,99.90
2023-05-11T20:56:05.805Z,99.90
2023-05-11T20:58:35.105Z,99.90
2023-05-11T21:01:03.022Z,99.90
2023-05-11T21:03:30.934Z,99.90
2023-05-11T21:05:58.798Z,99.90
2023-05-11T21:08:26.778Z,99.90
2023-05-11T21:10:54.646Z,99.90
2023-05-11T21:13:22.513Z,99.90
2023-05-11T21:15:51.723Z,99.90
2023-05-11T21:18:19.722Z,99.90
2023-05-11T21:20:47.610Z,99.90
2023-05-11T21:23:15.456Z,99.90
2023-05-11T21:25:43.288Z,99.90
2023-05-11T21:28:11.156Z,99.90
2023-05-11T21:30:39.139Z,99.90
2023-05-11T21:33:08.529Z,99.90
2023-05-11T21:35:36.434Z,99.90
2023-05-11T21:38:04.344Z,99.90
2023-05-11T21:40:32.219Z,99.90
2023-05-11T21:43:00.062Z,99.90
2023-05-11T21:45:27.976Z,99.90
2023-05-11T21:47:55.911Z,99.90
2023-05-11T21:50:25.164Z,99.90
2023-05-11T21:55:21.051Z,99.90
2023-05-11T21:57:49.174Z,99.90
2023-05-11T22:00:19.213Z,99.90
2023-05-11T22:02:47.346Z,99.90
2023-05-11T22:05:15.797Z,99.90
2023-05-11T22:07:45.094Z,99.90
2023-05-11T22:10:13.243Z,99.90
2023-05-11T22:12:41.121Z,99.90
2023-05-11T22:15:09.977Z,99.90
2023-05-11T22:17:38.435Z,99.90
2023-05-11T22:20:08.198Z,99.90
2023-05-11T22:22:36.630Z,99.90
2023-05-11T22:25:06.393Z,99.90
2023-05-11T22:27:34.258Z,99.90
2023-05-11T22:30:02.431Z,99.90
2023-05-11T22:32:31.458Z,99.90
2023-05-11T22:34:59.990Z,99.90
2023-05-11T22:37:28.422Z,99.90
2023-05-11T22:39:56.362Z,99.90
2023-05-11T22:42:25.569Z,99.90
2023-05-11T22:44:53.424Z,99.90
2023-05-11T22:47:21.409Z,99.90
2023-05-11T22:49:49.243Z,99.90
2023-05-11T22:52:17.602Z,99.90
2023-05-11T22:54:45.427Z,99.90
2023-05-11T22:57:16.055Z,99.90
2023-05-11T22:59:46.635Z,99.90
2023-05-11T23:02:14.801Z,99.90
2023-05-11T23:04:42.786Z,99.90
2023-05-11T23:07:12.611Z,99.90
2023-05-11T23:09:40.472Z,99.90
2023-05-11T23:12:09.016Z,99.90
2023-05-11T23:14:37.162Z,99.90
2023-05-11T23:17:06.434Z,99.90
2023-05-11T23:19:34.576Z,99.90
2023-05-11T23:22:02.665Z,99.90
2023-05-11T23:24:30.514Z,99.90
2023-05-11T23:26:58.528Z,99.90
2023-05-11T23:29:27.051Z,99.90
2023-05-11T23:31:55.894Z,99.90
2023-05-11T23:34:25.108Z,99.90
2023-05-11T23:36:52.957Z,99.90
2023-05-11T23:39:20.783Z,99.90
2023-05-11T23:41:48.616Z,99.90
2023-05-11T23:44:17.417Z,99.90
2023-05-11T23:46:45.399Z,99.90
2023-05-11T23:49:13.269Z,99.90
2023-05-11T23:51:42.508Z,99.90
2023-05-11T23:54:10.363Z,99.90
2023-05-11T23:56:38.206Z,99.90
2023-05-11T23:59:06.067Z,99.90
